Flight Track Log - Related Links

Times and Time Zones

All times are in EDT time to prevent confusion due to time zone crossing. See the SWA508 flight status page for this flight to view local times or setup timezone preferences in your user account.

Time Position Orientation Groundspeed Altitude Reporting Facility
EDT Latitude Longitude Course Direction KTS MPH feet Rate Location/Type
Tue 01:07:05 PM 41.7667 -87.7667 346° North 141 162 1,900  Level Chicago TRACON
Tue 01:08:05 PM 41.8167 -87.7833 346° North 258 297 3,600 880 Climbing Chicago TRACON
Tue 01:10:09 PM 41.8006 -87.5803 96° East 284 327 4,600 1,097 Climbing Chicago Center
Tue 01:11:11 PM 41.7944 -87.4714 94° East 290 334 7,000 3,220 Climbing Chicago Center
Tue 01:12:12 PM 41.7844 -87.3572 97° East 302 348 11,200 3,854 Climbing Chicago Center
Tue 01:13:14 PM 41.7753 -87.2386 96° East 315 362 14,900 3,552 Climbing Chicago Center
Tue 01:14:17 PM 41.7647 -87.1094 96° East 338 389 18,600 3,264 Climbing Chicago Center
Tue 01:15:19 PM 41.7600 -86.9739 93° East 358 412 21,700 2,952 Climbing Chicago Center
Tue 01:16:21 PM 41.7639 -86.8036 88° East 377 434 24,700 2,613 Climbing Chicago Center
Tue 01:17:23 PM 41.7650 -86.6444 89° East 406 467 27,100 2,177 Climbing Chicago Center
Tue 01:18:25 PM 41.7661 -86.4875 89° East 419 482 29,200 2,032 Climbing Chicago Center
Tue 01:19:27 PM 41.7678 -86.3333 89° East 417 480 31,300 2,032 Climbing Chicago Center
Tue 01:20:29 PM 41.7694 -86.1800 89° East 412 474 33,400 2,032 Climbing Chicago Center
Tue 01:21:31 PM 41.7711 -86.0308 89° East 404 465 35,500 1,790 Climbing Chicago Center
Tue 01:22:33 PM 41.7731 -85.8886 89° East 388 447 37,100 1,258 Climbing Chicago Center
Tue 01:23:35 PM 41.7753 -85.7114 89° East 393 452 38,100 532 Climbing Chicago Center
Tue 01:24:37 PM 41.7786 -85.5533 88° East 412 474 38,200 242 Climbing Chicago Center
Tue 01:25:39 PM 41.7797 -85.3767 89° East 464 534 38,600 387 Climbing Chicago Center
Tue 01:26:41 PM 41.7792 -85.1986 90° East 468 539 39,000 235 Climbing Chicago Center
Tue 01:27:21 PM 41.7797 -85.0892 90° East 465 535 39,000  Level Cleveland Center
Tue 01:28:21 PM 41.7800 -84.9164 90° East 460 529 39,000  Level Cleveland Center
Tue 01:29:21 PM 41.7781 -84.7464 91° East 460 529 39,000  Level Cleveland Center
Tue 01:30:21 PM 41.7800 -84.5767 89° East 460 529 39,000  Level Cleveland Center
Tue 01:31:21 PM 41.7794 -84.4067 90° East 460 529 39,000  Level Cleveland Center
Tue 01:32:21 PM 41.7728 -84.2253 93° East 455 524 39,000  Level Cleveland Center
Tue 01:33:21 PM 41.7739 -84.0553 89° East 455 524 39,000  Level Cleveland Center
Tue 01:34:21 PM 41.7728 -83.8828 90° East 455 524 39,000  Level Cleveland Center
Tue 01:35:21 PM 41.7714 -83.7128 91° East 460 529 39,000  Level Cleveland Center
Tue 01:36:21 PM 41.7672 -83.5481 92° East 460 529 39,000 150 Level Cleveland Center
Tue 01:37:21 PM 41.7528 -83.3833 97° East 455 524 39,300 550 Climbing Cleveland Center
Tue 01:38:21 PM 41.7358 -83.2156 98° East 455 524 40,100 700 Climbing Cleveland Center
Tue 01:39:21 PM 41.7144 -83.0478 100° East 455 524 40,700 450 Climbing Cleveland Center
Tue 01:40:21 PM 41.6678 -82.8875 111° Southeast 450 518 41,000 150 Climbing Cleveland Center
Tue 01:41:21 PM 41.6228 -82.7414 112° Southeast 464 534 41,000  Level Cleveland Center
Tue 01:42:21 PM 41.5736 -82.5789 112° Southeast 469 540 41,000  Level Cleveland Center
Tue 01:43:21 PM 41.5242 -82.4192 112° Southeast 469 540 41,000  Level Cleveland Center
Tue 01:44:21 PM 41.4744 -82.2542 112° Southeast 469 540 41,000  Level Cleveland Center
Tue 01:45:21 PM 41.4267 -82.0953 112° Southeast 469 540 41,000  Level Cleveland Center
Tue 01:46:21 PM 41.3786 -81.9336 112° Southeast 469 540 41,000  Level Cleveland Center
Tue 01:47:21 PM 41.3303 -81.7806 113° Southeast 458 527 41,000  Level Cleveland Center
Tue 01:48:21 PM 41.2819 -81.6275 113° Southeast 458 527 41,000  Level Cleveland Center
Tue 01:49:21 PM 41.2331 -81.4694 112° Southeast 464 534 41,000  Level Cleveland Center
Tue 01:50:21 PM 41.1822 -81.3142 113° Southeast 459 528 41,000  Level Cleveland Center
Tue 01:51:21 PM 41.1331 -81.1647 114° Southeast 449 517 41,000  Level Cleveland Center
Tue 01:52:21 PM 41.0878 -81.0128 112° Southeast 444 511 41,000  Level Cleveland Center
Tue 01:53:21 PM 41.0403 -80.8611 113° Southeast 444 511 41,000  Level Cleveland Center
Tue 01:54:21 PM 40.9906 -80.7150 114° Southeast 439 505 41,000  Level Cleveland Center
Tue 01:55:21 PM 40.9428 -80.5667 113° Southeast 439 505 41,000  Level Cleveland Center
Tue 01:56:21 PM 40.8967 -80.4211 113° Southeast 439 505 41,000  Level Cleveland Center
Tue 01:57:21 PM 40.8444 -80.2758 115° Southeast 439 505 41,000  Level Cleveland Center
Tue 01:58:21 PM 40.7647 -80.1608 132° Southeast 427 491 41,000  Level Cleveland Center
Tue 01:59:21 PM 40.6664 -80.0767 147° Southeast 420 483 41,000 -50 Level Cleveland Center
Tue 02:00:21 PM 40.5700 -79.9817 143° Southeast 425 489 40,900 -541 Descending Cleveland Center
Tue 02:01:23 PM 40.4694 -79.8925 146° Southeast 430 495 39,900 -955 Descending Cleveland Center
Tue 02:02:33 PM 40.3811 -79.7517 129° Southeast 422 486 38,800 -1,708 Descending Cleveland Center
Tue 02:03:33 PM 40.3714 -79.5939 95° East 395 455 36,200 -2,600 Descending Cleveland Center
Tue 02:04:33 PM 40.3594 -79.4361 96° East 414 476 33,600 -1,600 Descending Cleveland Center
Tue 02:05:33 PM 40.3453 -79.2756 97° East 432 497 33,000 -300 Descending Cleveland Center
Tue 02:06:33 PM 40.3350 -79.1150 95° East 432 497 33,000  Level Cleveland Center
Tue 02:07:33 PM 40.3225 -78.9547 96° East 442 509 33,000 -4,000 Level Cleveland Center
Tue 02:08:33 PM 40.3139 -78.7969 94° East 442 509 25,000  Descending Cleveland Center
Tue 02:09:33 PM 40.3150 -78.6197 89° East 447 514 33,000 4,000 Climbing Cleveland Center
Tue 02:10:33 PM 40.3142 -78.4592 90° East 442 509 33,000 -900 Level Cleveland Center
Tue 02:11:33 PM 40.3153 -78.2931 89° East 442 509 31,200 -2,535 Descending Cleveland Center
Tue 02:13:40 PM 40.3111 -77.9656 91° East 446 513 25,100 -1,968 Descending New York Center
Tue 02:14:42 PM 40.3103 -77.8075 90° East 441 507 25,000 -50 Descending New York Center
Tue 02:15:39 PM 40.3094 -77.6442 90° East 441 507 25,000 -403 Level New York Center
Tue 02:16:41 PM 40.3081 -77.4861 91° East 441 507 24,200 -984 Descending New York Center
Tue 02:17:41 PM 40.3061 -77.3333 91° East 441 507 23,000 -1,388 Descending New York Center
Tue 02:18:42 PM 40.3000 -77.1831 93° East 429 494 21,400 -1,513 Descending New York Center
Tue 02:19:40 PM 40.2933 -77.0356 93° East 415 478 20,000 -966 Descending New York Center
Tue 02:20:40 PM 40.2608 -76.8964 107° East 400 460 19,500 -1,250 Descending New York Center
Tue 02:21:40 PM 40.2303 -76.7633 107° East 390 449 17,500 -2,132 Descending New York Center
Tue 02:22:41 PM 40.1994 -76.6275 107° East 390 449 15,200 -1,820 Descending New York Center
Tue 02:23:42 PM 40.1667 -76.4889 107° East 372 428 13,800 -1,240 Descending New York Center
Tue 02:24:42 PM 40.1411 -76.3725 106° East 349 402 12,700 -1,068 Descending New York Center
Tue 02:25:40 PM 40.1189 -76.2678 105° East 325 374 11,700 -864 Descending New York Center
Tue 02:26:40 PM 40.1128 -76.1722 95° East 292 336 11,000 -347 Descending New York Center
Tue 02:27:41 PM 40.1053 -76.0603 95° East 292 336 11,000  Level New York Center
Tue 02:28:42 PM 40.0975 -75.9567 96° East 292 336 11,000 -694 Level New York Center
Tue 02:29:42 PM 40.0894 -75.8556 96° East 287 330 9,600 -1,350 Descending New York Center
Tue 02:30:42 PM 40.0811 -75.7544 96° East 282 325 8,300 -1,017 Descending New York Center
Tue 02:31:40 PM 40.0767 -75.6647 94° East 256 295 7,600 -814 Descending New York Center
Tue 02:32:40 PM 40.0719 -75.5775 94° East 249 287 6,700 -793 Descending New York Center
Tue 02:33:41 PM 40.0686 -75.5014 93° East 238 274 6,000 -347 Descending New York Center
Tue 02:34:41 PM 40.0486 -75.4269 109° East 214 246 6,000  Level New York Center
Tue 02:35:42 PM 40.0017 -75.4561 205° Southwest 166 191 6,000  Level New York Center
Tue 02:36:42 PM 39.9553 -75.5208 227° Southwest 182 209 6,000  Level New York Center
Tue 02:37:40 PM 39.9028 -75.5333 190° South 192 221 6,000  Level New York Center
Tue 02:38:41 PM 39.8853 -75.6053 252° West 199 229 6,000 -49 Level New York Center
Tue 02:39:42 PM 39.8697 -75.6744 254° West 210 242 5,900 -347 Descending New York Center
Tue 02:40:42 PM 39.8250 -75.6983 202° Southwest 181 208 5,300 -610 Descending New York Center
Tue 02:41:40 PM 39.7867 -75.6714 152° Southeast 141 162 4,700 -517 Descending New York Center
Tue 02:43:36 PM 39.8000 -75.5500 82° East 170 196 3,800 -443 Descending Philadelphia TRACON
Tue 02:44:36 PM 39.8167 -75.5000 67° East 167 192 3,400 -574 Descending Philadelphia TRACON
Tue 02:45:31 PM 39.8333 -75.4500 67° East 170 196 2,700 -857 Descending Philadelphia TRACON
Tue 02:46:42 PM 39.8333 -75.3833 90° East 163 188 1,600 -773 Descending Philadelphia TRACON
Tue 02:47:43 PM 39.8500 -75.3333 67° East 118 136 1,000 -632 Descending Philadelphia TRACON
Tue 02:48:36 PM 39.8500 -75.3000 90° East 119 137 400 -679 Descending Philadelphia TRACON
Tue 02:50:00 PM 39.8667 -75.2333 90° East  Level FlightAware Approximate
Tue 02:57:00 PM 39.8722 -75.2409 90° East  Level Estimated

Login

Don't have an account? Register now (free) for customized features, flight alerts, and more!